Time;durP1;ratioP1;P1;durP2;ratioP2;P2;SDS_P1;SDS_P2;PMS_P1;PMS_P2;Temp;Humidity;BMP_temperature;BMP_pressure;BME280_temperature;BME280_humidity;BME280_pressure;Samples;Min_cycle;Max_cycle;Signal;HPM_P1;HPM_P2
2023/05/31 00:00:50;;;;;;;0.30;0.30;;;;;;;;;;5042418;28;20640;-79
2023/05/31 00:03:16;;;;;;;0.10;0.10;;;;;;;;;;5032892;28;20081;-78
2023/05/31 00:05:43;;;;;;;0.10;0.10;;;;;;;;;;5042356;28;20064;-79
2023/05/31 00:08:09;;;;;;;0.10;0.10;;;;;;;;;;5041653;28;20057;-78
2023/05/31 00:10:36;;;;;;;0.10;0.10;;;;;;;;;;5040911;28;20065;-78
2023/05/31 00:13:02;;;;;;;0.10;0.10;;;;;;;;;;5042713;28;20490;-79
2023/05/31 00:15:29;;;;;;;0.10;0.10;;;;;;;;;;5043386;28;20049;-78
2023/05/31 00:17:55;;;;;;;0.10;0.10;;;;;;;;;;5043722;28;20066;-77
2023/05/31 00:20:22;;;;;;;0.10;0.10;;;;;;;;;;5030829;28;20065;-79
2023/05/31 00:22:48;;;;;;;0.10;0.10;;;;;;;;;;5027369;28;20984;-78
2023/05/31 00:25:15;;;;;;;0.10;0.10;;;;;;;;;;5042894;28;20116;-78
2023/05/31 00:27:42;;;;;;;0.10;0.10;;;;;;;;;;5041625;28;20585;-78
2023/05/31 00:30:09;;;;;;;0.10;0.10;;;;;;;;;;5043716;28;20139;-78
2023/05/31 00:32:35;;;;;;;0.10;0.10;;;;;;;;;;5039847;28;20526;-78
2023/05/31 00:35:02;;;;;;;0.10;0.10;;;;;;;;;;5043040;28;20064;-78
2023/05/31 00:37:28;;;;;;;0.10;0.10;;;;;;;;;;5033361;28;20065;-78
2023/05/31 00:39:55;;;;;;;0.10;0.10;;;;;;;;;;5043609;28;20137;-78
2023/05/31 00:42:21;;;;;;;0.10;0.10;;;;;;;;;;5041949;28;20592;-78
2023/05/31 00:44:48;;;;;;;0.10;0.10;;;;;;;;;;5039138;28;20541;-79
2023/05/31 00:47:14;;;;;;;1.08;0.50;;;;;;;;;;5040523;28;20064;-79
2023/05/31 00:49:41;;;;;;;0.10;0.10;;;;;;;;;;5027958;28;20140;-79
2023/05/31 00:52:08;;;;;;;0.20;0.20;;;;;;;;;;5043355;28;20081;-78
2023/05/31 00:54:35;;;;;;;0.10;0.10;;;;;;;;;;5042769;28;20046;-78
2023/05/31 00:57:02;;;;;;;0.10;0.10;;;;;;;;;;5046155;28;20139;-79
2023/05/31 00:59:28;;;;;;;0.10;0.10;;;;;;;;;;5046380;28;20132;-78
2023/05/31 01:01:55;;;;;;;0.10;0.10;;;;;;;;;;5039912;28;20068;-79
2023/05/31 01:04:22;;;;;;;0.10;0.10;;;;;;;;;;5044462;28;20163;-79
2023/05/31 01:06:51;;;;;;;0.70;0.50;;;;;;;;;;5043177;28;20053;-79
2023/05/31 01:09:17;;;;;;;0.10;0.10;;;;;;;;;;5042669;28;20085;-79
2023/05/31 01:11:52;;;;;;;0.10;0.10;;;;;;;;;;5025922;28;20140;-78
2023/05/31 01:14:34;;;;;;;0.10;0.10;;;;;;;;;;5042757;28;20062;-79
2023/05/31 01:17:22;;;;;;;0.10;0.10;;;;;;;;;;5045536;28;20060;-79
2023/05/31 01:19:53;;;;;;;0.10;0.10;;;;;;;;;;5038615;28;20065;-78
2023/05/31 01:22:23;;;;;;;0.10;0.10;;;;;;;;;;5029911;28;20061;-79
2023/05/31 01:24:49;;;;;;;0.10;0.10;;;;;;;;;;5044158;28;20956;-77
2023/05/31 01:27:16;;;;;;;0.10;0.10;;;;;;;;;;5045422;28;20197;-79
2023/05/31 01:29:43;;;;;;;0.20;0.20;;;;;;;;;;5044052;28;20111;-78
2023/05/31 01:32:13;;;;;;;0.10;0.10;;;;;;;;;;5039552;28;20054;-78
2023/05/31 01:34:43;;;;;;;0.10;0.10;;;;;;;;;;5043545;28;20107;-77
2023/05/31 01:37:09;;;;;;;0.10;0.10;;;;;;;;;;5045332;28;20065;-78
2023/05/31 01:39:36;;;;;;;0.20;0.20;;;;;;;;;;5044723;28;20062;-78
2023/05/31 01:42:02;;;;;;;0.10;0.10;;;;;;;;;;5044751;28;20054;-78
2023/05/31 01:44:29;;;;;;;0.38;0.30;;;;;;;;;;5042166;28;20064;-78
2023/05/31 01:46:56;;;;;;;0.20;0.20;;;;;;;;;;5024914;28;20050;-78
2023/05/31 01:49:23;;;;;;;0.10;0.10;;;;;;;;;;5029372;28;20064;-78
2023/05/31 01:51:49;;;;;;;0.10;0.10;;;;;;;;;;5043594;28;20879;-79
2023/05/31 01:54:16;;;;;;;0.10;0.10;;;;;;;;;;5044692;28;20869;-77
2023/05/31 01:56:45;;;;;;;0.10;0.10;;;;;;;;;;5042780;28;20064;-78
2023/05/31 01:59:12;;;;;;;0.10;0.10;;;;;;;;;;5045185;28;20144;-78
2023/05/31 02:01:40;;;;;;;0.10;0.10;;;;;;;;;;5042821;28;20057;-78
2023/05/31 02:04:06;;;;;;;0.10;0.10;;;;;;;;;;5045043;28;20060;-77
2023/05/31 02:06:36;;;;;;;0.10;0.10;;;;;;;;;;5041786;28;20132;-78
2023/05/31 02:09:05;;;;;;;0.10;0.10;;;;;;;;;;5042968;28;20052;-79
2023/05/31 02:11:31;;;;;;;0.10;0.10;;;;;;;;;;5044482;28;20065;-78
2023/05/31 02:13:58;;;;;;;4.13;0.35;;;;;;;;;;5043995;28;20077;-78
2023/05/31 02:16:24;;;;;;;0.20;0.20;;;;;;;;;;5044768;28;20064;-79
2023/05/31 02:18:51;;;;;;;0.10;0.10;;;;;;;;;;5044185;28;20152;-79
2023/05/31 02:21:17;;;;;;;0.50;0.43;;;;;;;;;;5041648;28;20056;-78
2023/05/31 02:23:44;;;;;;;0.10;0.10;;;;;;;;;;5032032;28;20100;-79
2023/05/31 02:26:11;;;;;;;0.10;0.10;;;;;;;;;;5044698;28;20069;-79
2023/05/31 02:28:37;;;;;;;0.10;0.10;;;;;;;;;;5044058;28;20053;-78
2023/05/31 02:31:04;;;;;;;0.10;0.10;;;;;;;;;;5041966;28;20180;-78
2023/05/31 02:33:31;;;;;;;0.10;0.10;;;;;;;;;;5039741;28;20050;-79
2023/05/31 02:35:58;;;;;;;0.10;0.10;;;;;;;;;;5044867;28;20060;-79
2023/05/31 02:38:25;;;;;;;0.10;0.10;;;;;;;;;;5043149;28;20450;-78
2023/05/31 02:40:52;;;;;;;0.10;0.10;;;;;;;;;;5042015;28;20058;-78
2023/05/31 02:43:18;;;;;;;0.10;0.10;;;;;;;;;;5042826;28;20057;-78
2023/05/31 02:45:45;;;;;;;0.10;0.10;;;;;;;;;;5035173;28;20066;-78
2023/05/31 02:48:11;;;;;;;0.10;0.10;;;;;;;;;;5023650;28;20151;-78
2023/05/31 02:50:38;;;;;;;0.10;0.10;;;;;;;;;;5023805;28;20586;-79
2023/05/31 02:53:04;;;;;;;0.10;0.10;;;;;;;;;;5032479;28;20062;-78
2023/05/31 02:55:31;;;;;;;0.10;0.10;;;;;;;;;;5041357;28;20618;-79
2023/05/31 02:57:58;;;;;;;0.10;0.10;;;;;;;;;;5042940;28;20065;-78
2023/05/31 03:00:25;;;;;;;0.10;0.10;;;;;;;;;;5043704;28;20118;-79
2023/05/31 03:02:52;;;;;;;0.73;0.73;;;;;;;;;;5036213;28;20493;-78
2023/05/31 03:05:19;;;;;;;0.10;0.10;;;;;;;;;;5026022;28;20066;-78
2023/05/31 03:07:46;;;;;;;0.10;0.10;;;;;;;;;;5030332;28;20575;-79
2023/05/31 03:10:12;;;;;;;0.10;0.10;;;;;;;;;;5043751;28;20056;-77
2023/05/31 03:12:39;;;;;;;0.10;0.10;;;;;;;;;;5043467;28;20053;-79
2023/05/31 03:15:06;;;;;;;0.10;0.10;;;;;;;;;;5037650;28;20058;-77
2023/05/31 03:17:33;;;;;;;0.10;0.10;;;;;;;;;;5025529;28;20544;-79
2023/05/31 03:20:00;;;;;;;0.10;0.10;;;;;;;;;;5038764;28;20123;-79
2023/05/31 03:22:26;;;;;;;0.10;0.10;;;;;;;;;;5043865;28;20053;-78
2023/05/31 03:24:55;;;;;;;0.10;0.10;;;;;;;;;;5043663;28;20142;-79
2023/05/31 03:27:21;;;;;;;0.10;0.10;;;;;;;;;;5043321;28;20060;-77
2023/05/31 03:29:48;;;;;;;0.13;0.13;;;;;;;;;;5036519;28;20058;-78
2023/05/31 03:32:15;;;;;;;0.10;0.10;;;;;;;;;;5024309;28;20061;-79
2023/05/31 03:34:41;;;;;;;0.10;0.10;;;;;;;;;;5024317;28;20080;-78
2023/05/31 03:37:07;;;;;;;0.10;0.10;;;;;;;;;;5024098;28;20073;-79
2023/05/31 03:39:34;;;;;;;0.13;0.13;;;;;;;;;;5029087;28;20050;-77
2023/05/31 03:42:01;;;;;;;0.10;0.10;;;;;;;;;;5026445;28;20057;-80
2023/05/31 03:44:28;;;;;;;0.10;0.10;;;;;;;;;;5042462;28;20439;-77
2023/05/31 03:46:54;;;;;;;0.10;0.10;;;;;;;;;;5031771;28;20431;-79
2023/05/31 03:49:21;;;;;;;0.10;0.10;;;;;;;;;;5027129;28;20061;-78
2023/05/31 03:51:47;;;;;;;0.10;0.10;;;;;;;;;;5026838;28;20058;-78
2023/05/31 03:54:14;;;;;;;0.47;0.47;;;;;;;;;;5042783;28;20053;-78
2023/05/31 03:56:40;;;;;;;2.10;0.73;;;;;;;;;;5046020;28;20515;-78
2023/05/31 03:59:08;;;;;;;0.10;0.10;;;;;;;;;;5044621;28;20056;-78
2023/05/31 04:01:34;;;;;;;0.10;0.10;;;;;;;;;;5043057;28;20056;-79
2023/05/31 04:04:00;;;;;;;0.10;0.10;;;;;;;;;;5046011;28;20061;-79
2023/05/31 04:06:28;;;;;;;0.10;0.10;;;;;;;;;;5044977;28;20050;-79
2023/05/31 04:08:55;;;;;;;0.10;0.10;;;;;;;;;;5043623;28;20089;-78
2023/05/31 04:11:21;;;;;;;0.10;0.10;;;;;;;;;;5048531;28;20825;-79
2023/05/31 04:13:48;;;;;;;0.10;0.10;;;;;;;;;;5043590;28;20507;-78
2023/05/31 04:16:14;;;;;;;0.10;0.10;;;;;;;;;;5045111;28;20148;-78
2023/05/31 04:18:41;;;;;;;0.10;0.10;;;;;;;;;;5046279;28;20046;-78
2023/05/31 04:21:07;;;;;;;0.10;0.10;;;;;;;;;;5043508;28;20096;-78
2023/05/31 04:23:36;;;;;;;0.10;0.10;;;;;;;;;;5044459;28;20132;-78
2023/05/31 04:26:02;;;;;;;0.10;0.10;;;;;;;;;;5035548;28;20069;-79
2023/05/31 04:28:29;;;;;;;0.10;0.10;;;;;;;;;;5025560;28;20058;-78
2023/05/31 04:30:56;;;;;;;0.10;0.10;;;;;;;;;;5039466;28;21195;-78
2023/05/31 04:33:23;;;;;;;0.10;0.10;;;;;;;;;;5050741;28;20045;-78
2023/05/31 04:35:50;;;;;;;0.10;0.10;;;;;;;;;;5051318;28;21304;-78
2023/05/31 04:38:18;;;;;;;0.10;0.10;;;;;;;;;;5050740;28;20820;-78
2023/05/31 04:40:44;;;;;;;0.10;0.10;;;;;;;;;;5052143;28;20515;-78
2023/05/31 04:43:11;;;;;;;0.10;0.10;;;;;;;;;;5048591;28;20060;-78
2023/05/31 04:45:37;;;;;;;0.10;0.10;;;;;;;;;;5048623;28;20081;-78
2023/05/31 04:48:04;;;;;;;0.10;0.10;;;;;;;;;;5037169;28;20151;-78
2023/05/31 04:50:31;;;;;;;0.10;0.10;;;;;;;;;;5047332;28;20168;-79
2023/05/31 04:52:57;;;;;;;0.10;0.10;;;;;;;;;;5044098;28;20135;-78
2023/05/31 04:55:26;;;;;;;0.10;0.10;;;;;;;;;;5047204;28;20630;-78
2023/05/31 04:57:53;;;;;;;0.10;0.10;;;;;;;;;;5049888;28;20058;-78
2023/05/31 05:00:20;;;;;;;0.10;0.10;;;;;;;;;;5052793;28;20984;-79
2023/05/31 05:02:49;;;;;;;0.10;0.10;;;;;;;;;;5041186;28;20058;-79
2023/05/31 05:05:17;;;;;;;0.10;0.10;;;;;;;;;;5047876;28;20049;-79
2023/05/31 05:07:44;;;;;;;0.10;0.10;;;;;;;;;;5046962;28;20147;-79
2023/05/31 05:10:10;;;;;;;0.10;0.10;;;;;;;;;;5048116;28;20053;-80
2023/05/31 05:12:37;;;;;;;0.10;0.10;;;;;;;;;;5049466;28;20077;-79
2023/05/31 05:15:03;;;;;;;0.10;0.10;;;;;;;;;;5046446;28;20511;-79
2023/05/31 05:17:30;;;;;;;0.17;0.17;;;;;;;;;;5049009;28;20105;-79
2023/05/31 05:19:56;;;;;;;0.10;0.10;;;;;;;;;;5049818;28;20123;-79
2023/05/31 05:22:23;;;;;;;0.10;0.10;;;;;;;;;;5045760;28;20519;-79
2023/05/31 05:24:50;;;;;;;0.10;0.10;;;;;;;;;;5037522;28;21887;-79
2023/05/31 05:27:16;;;;;;;0.38;0.30;;;;;;;;;;5045448;28;20518;-79
2023/05/31 05:29:43;;;;;;;0.10;0.10;;;;;;;;;;5047322;28;20515;-80
2023/05/31 05:32:09;;;;;;;0.10;0.10;;;;;;;;;;5046505;28;20057;-79
2023/05/31 05:34:36;;;;;;;0.45;0.45;;;;;;;;;;5039723;28;20061;-79
2023/05/31 05:37:03;;;;;;;0.10;0.10;;;;;;;;;;5038941;28;20053;-79
2023/05/31 05:39:29;;;;;;;0.10;0.10;;;;;;;;;;5040656;28;20050;-79
2023/05/31 05:41:55;;;;;;;0.43;0.43;;;;;;;;;;5056521;28;20053;-77
2023/05/31 05:44:22;;;;;;;0.60;0.60;;;;;;;;;;5047568;28;20104;-79
2023/05/31 05:46:49;;;;;;;0.10;0.10;;;;;;;;;;5040989;28;20734;-79
2023/05/31 05:49:15;;;;;;;0.65;0.65;;;;;;;;;;5042344;28;20053;-78
2023/05/31 05:51:45;;;;;;;0.10;0.10;;;;;;;;;;5043902;28;20151;-79
2023/05/31 05:54:11;;;;;;;0.30;0.30;;;;;;;;;;5027728;28;20510;-79
2023/05/31 05:56:38;;;;;;;0.20;0.20;;;;;;;;;;5027399;28;20138;-78
2023/05/31 05:59:04;;;;;;;0.10;0.10;;;;;;;;;;5040921;28;20175;-80
2023/05/31 06:01:31;;;;;;;0.63;0.45;;;;;;;;;;5047871;28;20053;-79
2023/05/31 06:04:01;;;;;;;0.10;0.10;;;;;;;;;;5046719;28;20521;-79
2023/05/31 06:06:28;;;;;;;0.25;0.20;;;;;;;;;;5047952;28;20159;-79
2023/05/31 06:08:54;;;;;;;0.30;0.20;;;;;;;;;;5039910;28;20569;-79
2023/05/31 06:11:22;;;;;;;0.10;0.10;;;;;;;;;;5036934;28;20435;-79
2023/05/31 06:13:48;;;;;;;0.20;0.20;;;;;;;;;;5045303;28;20057;-79
2023/05/31 06:16:15;;;;;;;0.17;0.17;;;;;;;;;;5059834;28;20053;-78
2023/05/31 06:18:42;;;;;;;0.20;0.20;;;;;;;;;;5052308;28;20132;-78
2023/05/31 06:21:08;;;;;;;0.55;0.55;;;;;;;;;;5044419;28;20089;-79
2023/05/31 06:23:35;;;;;;;0.15;0.15;;;;;;;;;;5030311;28;20169;-78
2023/05/31 06:26:02;;;;;;;1.75;1.10;;;;;;;;;;5032502;28;20933;-79
2023/05/31 06:28:28;;;;;;;0.20;0.20;;;;;;;;;;5046749;28;20112;-78
2023/05/31 06:31:00;;;;;;;0.65;0.50;;;;;;;;;;5045557;28;20128;-79
2023/05/31 06:33:27;;;;;;;0.65;0.57;;;;;;;;;;5042644;28;20064;-79
2023/05/31 06:35:54;;;;;;;0.20;0.20;;;;;;;;;;5042016;28;20056;-79
2023/05/31 06:38:21;;;;;;;0.50;0.50;;;;;;;;;;5041711;28;20049;-78
2023/05/31 06:40:47;;;;;;;0.10;0.10;;;;;;;;;;5039553;28;20062;-78
2023/05/31 06:43:15;;;;;;;0.17;0.17;;;;;;;;;;5033746;28;20500;-78
2023/05/31 06:45:42;;;;;;;0.65;0.60;;;;;;;;;;5043156;28;20144;-78
2023/05/31 06:48:11;;;;;;;1.30;0.40;;;;;;;;;;5041717;28;20049;-78
2023/05/31 06:50:38;;;;;;;0.77;0.77;;;;;;;;;;5046506;28;20084;-78
2023/05/31 06:53:04;;;;;;;0.10;0.10;;;;;;;;;;5036279;28;20085;-78
2023/05/31 06:55:31;;;;;;;1.75;0.35;;;;;;;;;;5046093;28;20054;-78
2023/05/31 06:57:57;;;;;;;0.35;0.22;;;;;;;;;;5037025;28;20060;-79
2023/05/31 07:00:24;;;;;;;0.20;0.20;;;;;;;;;;5026335;28;20050;-79
2023/05/31 07:02:51;;;;;;;0.20;0.20;;;;;;;;;;5031275;28;20056;-78
2023/05/31 07:05:18;;;;;;;0.88;0.45;;;;;;;;;;5042920;28;20046;-79
2023/05/31 07:07:44;;;;;;;3.40;0.40;;;;;;;;;;5045856;28;20053;-78
2023/05/31 07:10:11;;;;;;;0.30;0.30;;;;;;;;;;5045055;28;20140;-79
2023/05/31 07:12:37;;;;;;;0.22;0.22;;;;;;;;;;5045802;28;20064;-78
2023/05/31 07:15:05;;;;;;;0.20;0.20;;;;;;;;;;5042878;28;20520;-78
2023/05/31 07:17:31;;;;;;;0.15;0.15;;;;;;;;;;5041195;28;20103;-79
2023/05/31 07:19:58;;;;;;;0.30;0.30;;;;;;;;;;5045447;28;20066;-78
2023/05/31 07:22:24;;;;;;;0.47;0.47;;;;;;;;;;5343242;22;20161;-77
2023/05/31 07:24:51;;;;;;;0.20;0.20;;;;;;;;;;5069031;28;20052;-76
2023/05/31 07:27:19;;;;;;;0.30;0.30;;;;;;;;;;5084650;28;20057;-76
2023/05/31 07:29:46;;;;;;;0.20;0.20;;;;;;;;;;5082747;28;20052;-78
2023/05/31 07:32:12;;;;;;;0.20;0.20;;;;;;;;;;5079443;28;20061;-77
2023/05/31 07:34:39;;;;;;;0.20;0.20;;;;;;;;;;5082097;28;20095;-77
2023/05/31 07:37:25;;;;;;;0.15;0.15;;;;;;;;;;5081435;28;20059;-76
2023/05/31 07:39:52;;;;;;;0.20;0.20;;;;;;;;;;5081378;28;20057;-77
2023/05/31 07:42:19;;;;;;;0.20;0.20;;;;;;;;;;5081686;28;20053;-77
2023/05/31 07:44:48;;;;;;;0.45;0.45;;;;;;;;;;5085751;28;20052;-75
2023/05/31 07:47:15;;;;;;;0.10;0.10;;;;;;;;;;5080825;28;20110;-76
2023/05/31 07:49:42;;;;;;;0.20;0.20;;;;;;;;;;5080322;28;20057;-75
2023/05/31 07:52:09;;;;;;;0.20;0.20;;;;;;;;;;5063182;28;20057;-76
2023/05/31 07:54:35;;;;;;;0.40;0.40;;;;;;;;;;5066968;28;20052;-74
2023/05/31 07:57:03;;;;;;;0.20;0.20;;;;;;;;;;5081886;28;20600;-76
2023/05/31 07:59:30;;;;;;;0.32;0.32;;;;;;;;;;5082957;28;20990;-74
2023/05/31 08:01:56;;;;;;;0.13;0.13;;;;;;;;;;5083404;28;20056;-75
2023/05/31 08:04:23;;;;;;;0.20;0.20;;;;;;;;;;5079652;28;20506;-76
2023/05/31 08:06:49;;;;;;;0.20;0.20;;;;;;;;;;5085869;28;20091;-77
2023/05/31 08:09:17;;;;;;;0.65;0.30;;;;;;;;;;5082966;28;20057;-74
2023/05/31 08:11:43;;;;;;;1.00;0.52;;;;;;;;;;5084807;28;20055;-75
2023/05/31 08:14:10;;;;;;;0.38;0.20;;;;;;;;;;5086068;28;20531;-75
2023/05/31 08:16:37;;;;;;;0.20;0.20;;;;;;;;;;5083516;28;20045;-75
2023/05/31 08:19:04;;;;;;;0.25;0.25;;;;;;;;;;5085823;28;20063;-76
2023/05/31 08:21:31;;;;;;;0.20;0.20;;;;;;;;;;5082051;28;20585;-75
2023/05/31 08:23:58;;;;;;;0.10;0.10;;;;;;;;;;5080911;28;20179;-75
2023/05/31 08:26:25;;;;;;;0.40;0.40;;;;;;;;;;5081072;27;20048;-75
2023/05/31 08:28:52;;;;;;;0.57;0.45;;;;;;;;;;5083468;28;20585;-74
2023/05/31 08:31:18;;;;;;;0.20;0.20;;;;;;;;;;5081811;28;20541;-75
2023/05/31 08:33:55;;;;;;;0.20;0.20;;;;;;;;;;5078189;28;20090;-76
2023/05/31 08:36:21;;;;;;;0.20;0.20;;;;;;;;;;5079148;28;20711;-73
2023/05/31 08:41:31;;;;;;;0.32;0.32;;;;;;;;;;5310815;22;20094;-76
2023/05/31 08:43:57;;;;;;;0.40;0.40;;;;;;;;;;5056090;28;20624;-78
2023/05/31 08:46:26;;;;;;;0.20;0.20;;;;;;;;;;5057840;28;20387;-76
2023/05/31 08:48:56;;;;;;;0.70;0.32;;;;;;;;;;5056758;28;20058;-75
2023/05/31 08:51:23;;;;;;;0.25;0.25;;;;;;;;;;5061977;28;20056;-76
2023/05/31 08:53:51;;;;;;;0.45;0.28;;;;;;;;;;5065259;28;20569;-76
2023/05/31 08:56:18;;;;;;;0.32;0.32;;;;;;;;;;5065693;28;20052;-76
2023/05/31 08:58:49;;;;;;;0.57;0.50;;;;;;;;;;5064661;28;20052;-76
2023/05/31 09:01:20;;;;;;;0.43;0.43;;;;;;;;;;5064078;28;20510;-76
2023/05/31 09:03:46;;;;;;;0.25;0.25;;;;;;;;;;5062297;28;20056;-76
2023/05/31 09:06:13;;;;;;;0.20;0.20;;;;;;;;;;5062074;28;20498;-76
2023/05/31 09:08:40;;;;;;;0.50;0.40;;;;;;;;;;5060350;28;20678;-76
2023/05/31 09:11:07;;;;;;;0.20;0.20;;;;;;;;;;5061263;28;20093;-76
2023/05/31 09:13:33;;;;;;;0.32;0.32;;;;;;;;;;5061561;28;20065;-75
2023/05/31 09:16:01;;;;;;;0.17;0.17;;;;;;;;;;5058709;28;20077;-76
2023/05/31 09:18:35;;;;;;;0.38;0.30;;;;;;;;;;5065237;28;20060;-76
2023/05/31 09:21:07;;;;;;;0.20;0.20;;;;;;;;;;5065050;28;20138;-76
2023/05/31 09:23:33;;;;;;;0.20;0.20;;;;;;;;;;5059121;28;20594;-76
2023/05/31 09:26:00;;;;;;;0.30;0.30;;;;;;;;;;5062454;28;20053;-75
2023/05/31 09:28:26;;;;;;;0.30;0.30;;;;;;;;;;5052001;28;20064;-76
2023/05/31 09:31:06;;;;;;;0.20;0.20;;;;;;;;;;5061805;28;20103;-76
2023/05/31 09:33:32;;;;;;;;;;;;;;;;;;5063534;28;20057;-76
2023/05/31 09:35:59;;;;;;;0.75;0.47;;;;;;;;;;5044511;28;47397;-76
2023/05/31 09:38:33;;;;;;;2.08;0.50;;;;;;;;;;5052613;28;20045;-76
2023/05/31 09:41:16;;;;;;;0.30;0.30;;;;;;;;;;5064393;28;20443;-76
2023/05/31 09:43:43;;;;;;;0.20;0.20;;;;;;;;;;5057021;28;20053;-76
2023/05/31 09:46:13;;;;;;;0.20;0.20;;;;;;;;;;5059715;28;20057;-76
2023/05/31 09:48:39;;;;;;;;;;;;;;;;;;5058043;28;20080;-76
2023/05/31 09:51:06;;;;;;;0.43;0.43;;;;;;;;;;5058403;28;47226;-76
2023/05/31 09:53:36;;;;;;;0.25;0.25;;;;;;;;;;5060086;28;20069;-76
2023/05/31 09:56:07;;;;;;;0.20;0.20;;;;;;;;;;5064454;28;20404;-76
2023/05/31 09:58:34;;;;;;;0.30;0.30;;;;;;;;;;5063524;28;20484;-76
2023/05/31 10:01:00;;;;;;;0.20;0.20;;;;;;;;;;5061952;28;20084;-76
2023/05/31 10:03:28;;;;;;;0.20;0.20;;;;;;;;;;5057087;28;20050;-76
2023/05/31 10:05:54;;;;;;;0.43;0.40;;;;;;;;;;5054159;28;20088;-76
2023/05/31 10:08:24;;;;;;;0.30;0.30;;;;;;;;;;5063280;28;20584;-76
2023/05/31 10:10:53;;;;;;;0.25;0.25;;;;;;;;;;5044165;28;20056;-76
2023/05/31 10:13:20;;;;;;;0.20;0.20;;;;;;;;;;5056141;28;20049;-76
2023/05/31 10:15:48;;;;;;;0.20;0.20;;;;;;;;;;5061981;28;20102;-76
2023/05/31 10:18:16;;;;;;;0.82;0.57;;;;;;;;;;5064408;28;20053;-76
2023/05/31 10:20:47;;;;;;;0.70;0.40;;;;;;;;;;5063543;28;20156;-75
2023/05/31 10:23:19;;;;;;;0.50;0.50;;;;;;;;;;5060027;28;20111;-76
2023/05/31 10:25:49;;;;;;;0.30;0.30;;;;;;;;;;5052955;28;20049;-76
2023/05/31 10:28:17;;;;;;;0.63;0.30;;;;;;;;;;5063285;28;20052;-76
2023/05/31 10:30:47;;;;;;;0.40;0.40;;;;;;;;;;5063798;28;20053;-75
2023/05/31 10:33:14;;;;;;;0.22;0.22;;;;;;;;;;5063801;28;20057;-75
2023/05/31 10:35:40;;;;;;;0.63;0.55;;;;;;;;;;5063125;28;20522;-76
2023/05/31 10:38:07;;;;;;;0.90;0.68;;;;;;;;;;5063621;28;20057;-76
2023/05/31 10:40:34;;;;;;;0.40;0.40;;;;;;;;;;5061888;28;20458;-76
2023/05/31 10:43:21;;;;;;;0.20;0.20;;;;;;;;;;5062008;28;20060;-76
2023/05/31 10:45:53;;;;;;;0.40;0.40;;;;;;;;;;5039767;28;20050;-76
2023/05/31 10:48:26;;;;;;;0.20;0.20;;;;;;;;;;5057697;28;20053;-76
2023/05/31 10:50:52;;;;;;;0.40;0.30;;;;;;;;;;5063085;28;20083;-76
2023/05/31 10:53:18;;;;;;;0.20;0.20;;;;;;;;;;5063974;28;20525;-76
2023/05/31 10:55:46;;;;;;;0.55;0.52;;;;;;;;;;5059643;28;20584;-75
2023/05/31 10:58:28;;;;;;;2.22;0.73;;;;;;;;;;5062963;28;20049;-76
2023/05/31 11:00:55;;;;;;;0.25;0.25;;;;;;;;;;5063620;28;20061;-76
2023/05/31 11:03:23;;;;;;;0.30;0.30;;;;;;;;;;5052820;28;20510;-76
2023/05/31 11:05:59;;;;;;;0.28;0.28;;;;;;;;;;5063133;28;20053;-76
2023/05/31 11:08:26;;;;;;;0.30;0.30;;;;;;;;;;5062716;28;20604;-76
2023/05/31 11:11:13;;;;;;;0.28;0.28;;;;;;;;;;5060557;28;20080;-76
2023/05/31 11:13:58;;;;;;;0.50;0.40;;;;;;;;;;5059085;28;20676;-76
2023/05/31 11:16:26;;;;;;;0.45;0.45;;;;;;;;;;5056245;28;20049;-76
2023/05/31 11:19:12;;;;;;;0.28;0.28;;;;;;;;;;5058950;28;20449;-76
2023/05/31 11:21:45;;;;;;;0.30;0.30;;;;;;;;;;5063165;28;20510;-76
2023/05/31 11:24:24;;;;;;;0.40;0.40;;;;;;;;;;5063439;28;20186;-76
2023/05/31 11:26:54;;;;;;;1.05;0.40;;;;;;;;;;5056876;28;20068;-76
2023/05/31 11:29:21;;;;;;;0.65;0.40;;;;;;;;;;5052600;28;20427;-75
2023/05/31 11:31:50;;;;;;;0.52;0.30;;;;;;;;;;5053097;28;20063;-76
2023/05/31 11:34:17;;;;;;;;;;;;;;;;;;5046070;28;20171;-75
2023/05/31 11:36:43;;;;;;;0.50;0.50;;;;;;;;;;5046495;28;45339;-76
2023/05/31 11:39:10;;;;;;;0.43;0.38;;;;;;;;;;5059998;28;20584;-76
2023/05/31 11:41:36;;;;;;;0.52;0.45;;;;;;;;;;5057332;28;21686;-76
2023/05/31 11:44:03;;;;;;;0.75;0.68;;;;;;;;;;5060854;28;20088;-76
2023/05/31 11:46:30;;;;;;;0.35;0.32;;;;;;;;;;5062419;28;20132;-76
2023/05/31 11:48:57;;;;;;;0.65;0.40;;;;;;;;;;5053779;28;20060;-75
2023/05/31 11:51:24;;;;;;;0.35;0.30;;;;;;;;;;5063413;28;20053;-75
2023/05/31 11:53:56;;;;;;;0.60;0.57;;;;;;;;;;5062811;28;20057;-76
2023/05/31 11:56:36;;;;;;;0.28;0.28;;;;;;;;;;5061407;28;20052;-76
2023/05/31 11:59:02;;;;;;;0.77;0.40;;;;;;;;;;5060568;28;20099;-75
2023/05/31 12:01:35;;;;;;;0.60;0.25;;;;;;;;;;5061952;28;20140;-76
2023/05/31 12:04:01;;;;;;;0.52;0.40;;;;;;;;;;5068140;28;20633;-75
2023/05/31 12:06:28;;;;;;;0.43;0.40;;;;;;;;;;5059775;28;20122;-76
2023/05/31 12:08:55;;;;;;;0.50;0.50;;;;;;;;;;5059610;28;20057;-76
2023/05/31 12:11:21;;;;;;;0.30;0.30;;;;;;;;;;5060737;28;20153;-76
2023/05/31 12:13:48;;;;;;;0.45;0.45;;;;;;;;;;5056111;28;20904;-76
2023/05/31 12:16:15;;;;;;;0.30;0.30;;;;;;;;;;5050393;28;20063;-75
2023/05/31 12:18:41;;;;;;;0.47;0.47;;;;;;;;;;5050967;28;20075;-76
2023/05/31 12:21:08;;;;;;;0.30;0.30;;;;;;;;;;5048373;28;20059;-75
2023/05/31 12:23:51;;;;;;;0.30;0.30;;;;;;;;;;5052358;28;20657;-74
2023/05/31 12:26:17;;;;;;;0.40;0.40;;;;;;;;;;5051274;28;20048;-75
2023/05/31 12:28:43;;;;;;;0.30;0.30;;;;;;;;;;5050988;28;20119;-75
2023/05/31 12:31:10;;;;;;;0.30;0.30;;;;;;;;;;5055128;28;20298;-76
2023/05/31 12:33:36;;;;;;;0.30;0.30;;;;;;;;;;5051408;28;20628;-75
2023/05/31 12:36:05;;;;;;;0.35;0.35;;;;;;;;;;5052899;28;20084;-74
2023/05/31 12:38:32;;;;;;;0.32;0.32;;;;;;;;;;5047913;28;20049;-75
2023/05/31 12:41:01;;;;;;;0.43;0.40;;;;;;;;;;5056384;28;20104;-76
2023/05/31 12:43:29;;;;;;;0.40;0.40;;;;;;;;;;5048470;28;20050;-77
2023/05/31 12:45:56;;;;;;;0.40;0.40;;;;;;;;;;5056126;28;20059;-75
2023/05/31 12:48:24;;;;;;;1.00;0.55;;;;;;;;;;5060039;28;20562;-76
2023/05/31 12:50:51;;;;;;;0.40;0.40;;;;;;;;;;5059345;28;20579;-75
2023/05/31 12:53:17;;;;;;;0.52;0.30;;;;;;;;;;5063386;28;20053;-75
2023/05/31 12:55:44;;;;;;;0.40;0.40;;;;;;;;;;5054847;28;21066;-75
2023/05/31 12:58:12;;;;;;;0.40;0.40;;;;;;;;;;5048469;28;20057;-76
2023/05/31 13:00:39;;;;;;;0.30;0.30;;;;;;;;;;5059390;28;20059;-76
2023/05/31 13:03:12;;;;;;;0.45;0.45;;;;;;;;;;5065662;28;20451;-75
2023/05/31 13:05:40;;;;;;;0.30;0.30;;;;;;;;;;5059903;28;20053;-75
2023/05/31 13:08:07;;;;;;;0.95;0.77;;;;;;;;;;5065179;28;20064;-75
2023/05/31 13:10:35;;;;;;;1.67;1.02;;;;;;;;;;5064343;28;20053;-75
2023/05/31 13:13:03;;;;;;;0.83;0.70;;;;;;;;;;5065339;28;20064;-75
2023/05/31 13:15:30;;;;;;;0.30;0.30;;;;;;;;;;5062719;28;20057;-75
2023/05/31 13:17:56;;;;;;;0.30;0.30;;;;;;;;;;5065288;28;20056;-76
2023/05/31 13:20:23;;;;;;;0.30;0.30;;;;;;;;;;5062648;28;20135;-76
2023/05/31 13:22:49;;;;;;;0.30;0.30;;;;;;;;;;5062317;28;20053;-76
2023/05/31 13:25:16;;;;;;;0.40;0.40;;;;;;;;;;5059594;28;20054;-76
2023/05/31 13:27:43;;;;;;;0.30;0.30;;;;;;;;;;5048203;28;20054;-76
2023/05/31 13:30:12;;;;;;;0.22;0.22;;;;;;;;;;5059301;28;20504;-76
2023/05/31 13:32:38;;;;;;;0.70;0.55;;;;;;;;;;5059724;28;20060;-76
2023/05/31 13:35:06;;;;;;;0.40;0.40;;;;;;;;;;5058599;28;20052;-76
2023/05/31 13:37:32;;;;;;;0.40;0.40;;;;;;;;;;5063407;28;20569;-76
2023/05/31 13:39:59;;;;;;;0.63;0.60;;;;;;;;;;5061416;28;20045;-76
2023/05/31 13:42:26;;;;;;;0.30;0.30;;;;;;;;;;5064408;28;20064;-76
2023/05/31 13:44:52;;;;;;;0.30;0.30;;;;;;;;;;5059478;28;20165;-76
2023/05/31 13:47:18;;;;;;;0.35;0.35;;;;;;;;;;5058060;28;20543;-76
2023/05/31 13:49:45;;;;;;;0.55;0.40;;;;;;;;;;5052883;28;20536;-76
2023/05/31 17:06:51;;;;;;;0.55;0.40;;;;;;;;;;5206877;22;20053;-75
2023/05/31 17:09:18;;;;;;;0.20;0.20;;;;;;;;;;5078691;28;20524;-75
2023/05/31 17:11:44;;;;;;;2.13;0.32;;;;;;;;;;5056379;28;20049;-74
2023/05/31 17:14:10;;;;;;;0.20;0.20;;;;;;;;;;5056164;28;20048;-73
2023/05/31 17:16:38;;;;;;;0.20;0.20;;;;;;;;;;5048296;28;20057;-74
2023/05/31 17:19:04;;;;;;;0.45;0.40;;;;;;;;;;5044938;28;20293;-75
2023/05/31 17:21:32;;;;;;;0.20;0.20;;;;;;;;;;5043838;28;20507;-74
2023/05/31 17:23:59;;;;;;;0.20;0.20;;;;;;;;;;5044467;28;20068;-75
2023/05/31 17:26:26;;;;;;;0.77;0.73;;;;;;;;;;5044921;28;20058;-73
2023/05/31 17:28:52;;;;;;;0.73;0.30;;;;;;;;;;5043271;28;20617;-75
2023/05/31 17:31:19;;;;;;;0.20;0.20;;;;;;;;;;5043816;28;20064;-75
2023/05/31 17:33:45;;;;;;;0.20;0.20;;;;;;;;;;5045513;28;20112;-73
2023/05/31 17:36:12;;;;;;;0.45;0.45;;;;;;;;;;5044885;28;20431;-74
2023/05/31 17:38:38;;;;;;;0.70;0.30;;;;;;;;;;5056028;28;20136;-76
2023/05/31 17:41:05;;;;;;;0.30;0.30;;;;;;;;;;5048326;28;20065;-74
2023/05/31 17:43:31;;;;;;;0.20;0.20;;;;;;;;;;5044100;28;20053;-76
2023/05/31 17:45:58;;;;;;;0.75;0.38;;;;;;;;;;5043719;28;20560;-76
2023/05/31 17:48:26;;;;;;;0.13;0.13;;;;;;;;;;5043909;28;20369;-75
2023/05/31 17:50:53;;;;;;;0.20;0.20;;;;;;;;;;5048312;28;20052;-75
2023/05/31 17:53:19;;;;;;;0.20;0.20;;;;;;;;;;5048956;28;20223;-75
2023/05/31 17:55:46;;;;;;;0.73;0.20;;;;;;;;;;5042563;28;20616;-74
2023/05/31 17:58:13;;;;;;;0.28;0.28;;;;;;;;;;5041507;28;20049;-76
2023/05/31 18:00:40;;;;;;;0.35;0.35;;;;;;;;;;5042588;28;20522;-77
2023/05/31 18:03:07;;;;;;;0.20;0.20;;;;;;;;;;5043075;28;20069;-76